sensor_id;sensor_type;location;lat;lon;timestamp;temperature;humidity
1309;DHT22;647;48.840;9.314;2022-11-12T00:00:58;7.90;1.00
1309;DHT22;647;48.840;9.314;2022-11-12T00:03:25;7.80;1.00
1309;DHT22;647;48.840;9.314;2022-11-12T00:05:52;7.70;1.00
1309;DHT22;647;48.840;9.314;2022-11-12T00:08:19;7.70;1.00
1309;DHT22;647;48.840;9.314;2022-11-12T00:10:47;7.70;1.00
1309;DHT22;647;48.840;9.314;2022-11-12T00:13:14;7.70;1.00
1309;DHT22;647;48.840;9.314;2022-11-12T00:15:41;7.50;1.00
1309;DHT22;647;48.840;9.314;2022-11-12T00:18:08;7.50;1.00
1309;DHT22;647;48.840;9.314;2022-11-12T00:20:35;7.60;1.00
1309;DHT22;647;48.840;9.314;2022-11-12T00:23:02;7.50;1.00
1309;DHT22;647;48.840;9.314;2022-11-12T00:25:29;7.40;1.00
1309;DHT22;647;48.840;9.314;2022-11-12T00:28:01;6.90;1.00
1309;DHT22;647;48.840;9.314;2022-11-12T00:30:28;6.50;1.00
1309;DHT22;647;48.840;9.314;2022-11-12T00:32:55;6.30;1.00
1309;DHT22;647;48.840;9.314;2022-11-12T00:35:22;6.20;1.00
1309;DHT22;647;48.840;9.314;2022-11-12T00:37:53;6.40;1.00
1309;DHT22;647;48.840;9.314;2022-11-12T00:40:21;6.40;1.00
1309;DHT22;647;48.840;9.314;2022-11-12T00:42:49;6.40;1.00
1309;DHT22;647;48.840;9.314;2022-11-12T00:45:18;6.60;1.00
1309;DHT22;647;48.840;9.314;2022-11-12T00:47:45;6.90;1.00
1309;DHT22;647;48.840;9.314;2022-11-12T00:50:12;7.00;1.00
1309;DHT22;647;48.840;9.314;2022-11-12T00:52:40;6.90;1.00
1309;DHT22;647;48.840;9.314;2022-11-12T00:55:07;7.00;1.00
1309;DHT22;647;48.840;9.314;2022-11-12T00:57:34;6.90;1.00
1309;DHT22;647;48.840;9.314;2022-11-12T01:00:01;6.80;1.00
1309;DHT22;647;48.840;9.314;2022-11-12T01:02:29;7.10;1.00
1309;DHT22;647;48.840;9.314;2022-11-12T01:04:56;6.80;1.00
1309;DHT22;647;48.840;9.314;2022-11-12T01:07:23;6.90;1.00
1309;DHT22;647;48.840;9.314;2022-11-12T01:09:50;7.00;1.00
1309;DHT22;647;48.840;9.314;2022-11-12T01:12:17;7.00;1.00
1309;DHT22;647;48.840;9.314;2022-11-12T01:14:43;6.90;1.00
1309;DHT22;647;48.840;9.314;2022-11-12T01:17:10;7.00;1.00
1309;DHT22;647;48.840;9.314;2022-11-12T01:19:38;7.10;1.00
1309;DHT22;647;48.840;9.314;2022-11-12T01:22:05;7.00;1.00
1309;DHT22;647;48.840;9.314;2022-11-12T01:24:32;7.00;1.00
1309;DHT22;647;48.840;9.314;2022-11-12T01:26:58;7.20;1.00
1309;DHT22;647;48.840;9.314;2022-11-12T01:29:25;7.30;1.00
1309;DHT22;647;48.840;9.314;2022-11-12T01:31:52;7.40;1.00
1309;DHT22;647;48.840;9.314;2022-11-12T01:34:19;7.50;1.00
1309;DHT22;647;48.840;9.314;2022-11-12T01:36:47;7.50;1.00
1309;DHT22;647;48.840;9.314;2022-11-12T01:39:14;7.50;1.00
1309;DHT22;647;48.840;9.314;2022-11-12T01:41:40;7.50;1.00
1309;DHT22;647;48.840;9.314;2022-11-12T01:44:09;7.50;1.00
1309;DHT22;647;48.840;9.314;2022-11-12T01:46:41;7.50;1.00
1309;DHT22;647;48.840;9.314;2022-11-12T01:49:13;7.60;1.00
1309;DHT22;647;48.840;9.314;2022-11-12T01:51:44;7.50;1.00
1309;DHT22;647;48.840;9.314;2022-11-12T01:54:15;7.40;1.00
1309;DHT22;647;48.840;9.314;2022-11-12T01:56:43;7.40;1.00
1309;DHT22;647;48.840;9.314;2022-11-12T01:59:13;7.40;1.00
1309;DHT22;647;48.840;9.314;2022-11-12T02:01:41;7.50;1.00
1309;DHT22;647;48.840;9.314;2022-11-12T02:04:08;7.30;1.00
1309;DHT22;647;48.840;9.314;2022-11-12T02:06:35;7.10;1.00
1309;DHT22;647;48.840;9.314;2022-11-12T02:09:03;7.10;1.00
1309;DHT22;647;48.840;9.314;2022-11-12T02:11:31;7.10;1.00
1309;DHT22;647;48.840;9.314;2022-11-12T02:13:58;7.20;1.00
1309;DHT22;647;48.840;9.314;2022-11-12T02:16:29;7.30;1.00
1309;DHT22;647;48.840;9.314;2022-11-12T02:18:56;6.90;1.00
1309;DHT22;647;48.840;9.314;2022-11-12T02:21:24;5.90;1.00
1309;DHT22;647;48.840;9.314;2022-11-12T02:23:59;5.70;1.00
1309;DHT22;647;48.840;9.314;2022-11-12T02:26:28;5.70;1.00
1309;DHT22;647;48.840;9.314;2022-11-12T02:28:55;5.50;1.00
1309;DHT22;647;48.840;9.314;2022-11-12T03:03:20;5.50;1.00
1309;DHT22;647;48.840;9.314;2022-11-12T03:05:54;5.70;1.00
1309;DHT22;647;48.840;9.314;2022-11-12T03:08:21;5.70;1.00
1309;DHT22;647;48.840;9.314;2022-11-12T03:10:48;5.70;1.00
1309;DHT22;647;48.840;9.314;2022-11-12T03:13:16;5.80;1.00
1309;DHT22;647;48.840;9.314;2022-11-12T03:15:42;5.70;1.00
1309;DHT22;647;48.840;9.314;2022-11-12T03:18:09;5.60;1.00
1309;DHT22;647;48.840;9.314;2022-11-12T03:20:36;5.70;1.00
1309;DHT22;647;48.840;9.314;2022-11-12T03:23:05;5.80;1.00
1309;DHT22;647;48.840;9.314;2022-11-12T03:25:33;6.20;1.00
1309;DHT22;647;48.840;9.314;2022-11-12T03:28:02;6.40;1.00
1309;DHT22;647;48.840;9.314;2022-11-12T03:30:32;6.30;1.00
1309;DHT22;647;48.840;9.314;2022-11-12T03:33:00;6.10;1.00
1309;DHT22;647;48.840;9.314;2022-11-12T03:35:26;6.40;1.00
1309;DHT22;647;48.840;9.314;2022-11-12T03:37:53;6.60;1.00
1309;DHT22;647;48.840;9.314;2022-11-12T03:40:20;6.70;1.00
1309;DHT22;647;48.840;9.314;2022-11-12T03:42:48;6.70;1.00
1309;DHT22;647;48.840;9.314;2022-11-12T03:45:16;6.80;1.00
1309;DHT22;647;48.840;9.314;2022-11-12T03:47:45;6.80;1.00
1309;DHT22;647;48.840;9.314;2022-11-12T03:50:13;6.70;1.00
1309;DHT22;647;48.840;9.314;2022-11-12T03:52:43;6.80;1.00
1309;DHT22;647;48.840;9.314;2022-11-12T03:55:11;6.70;1.00
1309;DHT22;647;48.840;9.314;2022-11-12T03:57:38;6.80;1.00
1309;DHT22;647;48.840;9.314;2022-11-12T04:00:06;6.70;1.00
1309;DHT22;647;48.840;9.314;2022-11-12T04:02:33;6.70;1.00
1309;DHT22;647;48.840;9.314;2022-11-12T04:05:02;6.70;1.00
1309;DHT22;647;48.840;9.314;2022-11-12T04:07:48;6.50;1.00
1309;DHT22;647;48.840;9.314;2022-11-12T04:10:32;6.40;1.00
1309;DHT22;647;48.840;9.314;2022-11-12T04:12:59;6.20;1.00
1309;DHT22;647;48.840;9.314;2022-11-12T04:15:43;5.80;1.00
1309;DHT22;647;48.840;9.314;2022-11-12T04:18:30;5.60;1.00
1309;DHT22;647;48.840;9.314;2022-11-12T04:21:16;5.50;1.00
1309;DHT22;647;48.840;9.314;2022-11-12T04:24:00;5.30;1.00
1309;DHT22;647;48.840;9.314;2022-11-12T04:26:27;5.20;1.00
1309;DHT22;647;48.840;9.314;2022-11-12T04:28:52;5.30;1.00
1309;DHT22;647;48.840;9.314;2022-11-12T04:31:37;5.20;1.00
1309;DHT22;647;48.840;9.314;2022-11-12T04:34:03;5.20;1.00
1309;DHT22;647;48.840;9.314;2022-11-12T04:36:45;5.30;1.00
1309;DHT22;647;48.840;9.314;2022-11-12T04:39:12;5.30;1.00
1309;DHT22;647;48.840;9.314;2022-11-12T04:41:39;5.50;1.00
1309;DHT22;647;48.840;9.314;2022-11-12T04:44:23;5.80;1.00
1309;DHT22;647;48.840;9.314;2022-11-12T04:47:07;5.90;1.00
1309;DHT22;647;48.840;9.314;2022-11-12T04:49:34;6.10;1.00
1309;DHT22;647;48.840;9.314;2022-11-12T04:52:02;6.20;1.00
1309;DHT22;647;48.840;9.314;2022-11-12T04:54:32;6.20;1.00
1309;DHT22;647;48.840;9.314;2022-11-12T04:56:59;6.20;1.00
1309;DHT22;647;48.840;9.314;2022-11-12T04:59:26;5.90;1.00
1309;DHT22;647;48.840;9.314;2022-11-12T05:01:53;6.00;1.00
1309;DHT22;647;48.840;9.314;2022-11-12T05:04:20;5.80;1.00
1309;DHT22;647;48.840;9.314;2022-11-12T05:06:47;5.80;1.00
1309;DHT22;647;48.840;9.314;2022-11-12T05:09:19;6.20;1.00
1309;DHT22;647;48.840;9.314;2022-11-12T05:11:47;6.60;1.00
1309;DHT22;647;48.840;9.314;2022-11-12T05:14:14;6.70;1.00
1309;DHT22;647;48.840;9.314;2022-11-12T05:16:41;6.80;1.00
1309;DHT22;647;48.840;9.314;2022-11-12T05:19:08;6.80;1.00
1309;DHT22;647;48.840;9.314;2022-11-12T05:21:35;6.90;1.00
1309;DHT22;647;48.840;9.314;2022-11-12T05:24:21;6.80;1.00
1309;DHT22;647;48.840;9.314;2022-11-12T05:26:48;6.80;1.00
1309;DHT22;647;48.840;9.314;2022-11-12T05:29:15;6.90;1.00
1309;DHT22;647;48.840;9.314;2022-11-12T05:31:41;6.90;1.00
1309;DHT22;647;48.840;9.314;2022-11-12T05:34:08;7.00;1.00
1309;DHT22;647;48.840;9.314;2022-11-12T05:36:35;7.00;1.00
1309;DHT22;647;48.840;9.314;2022-11-12T05:39:02;7.00;1.00
1309;DHT22;647;48.840;9.314;2022-11-12T05:41:31;7.10;1.00
1309;DHT22;647;48.840;9.314;2022-11-12T05:43:58;7.10;1.00
1309;DHT22;647;48.840;9.314;2022-11-12T05:46:24;7.00;1.00
1309;DHT22;647;48.840;9.314;2022-11-12T05:48:51;6.80;1.00
1309;DHT22;647;48.840;9.314;2022-11-12T05:51:18;6.60;1.00
1309;DHT22;647;48.840;9.314;2022-11-12T05:53:45;6.60;1.00
1309;DHT22;647;48.840;9.314;2022-11-12T05:56:12;6.60;1.00
1309;DHT22;647;48.840;9.314;2022-11-12T05:58:40;6.50;1.00
1309;DHT22;647;48.840;9.314;2022-11-12T06:01:07;6.60;1.00
1309;DHT22;647;48.840;9.314;2022-11-12T06:03:33;6.40;1.00
1309;DHT22;647;48.840;9.314;2022-11-12T06:06:00;6.50;1.00
1309;DHT22;647;48.840;9.314;2022-11-12T06:08:27;6.60;1.00
1309;DHT22;647;48.840;9.314;2022-11-12T06:10:54;6.70;1.00
1309;DHT22;647;48.840;9.314;2022-11-12T06:13:23;6.60;1.00
1309;DHT22;647;48.840;9.314;2022-11-12T06:15:52;6.70;1.00
1309;DHT22;647;48.840;9.314;2022-11-12T06:18:19;6.70;1.00
1309;DHT22;647;48.840;9.314;2022-11-12T06:20:46;6.80;1.00
1309;DHT22;647;48.840;9.314;2022-11-12T06:23:33;6.80;1.00
1309;DHT22;647;48.840;9.314;2022-11-12T06:26:00;6.70;1.00
1309;DHT22;647;48.840;9.314;2022-11-12T06:28:27;6.70;1.00
1309;DHT22;647;48.840;9.314;2022-11-12T06:30:55;6.80;1.00
1309;DHT22;647;48.840;9.314;2022-11-12T06:33:22;6.80;1.00
1309;DHT22;647;48.840;9.314;2022-11-12T06:35:56;6.80;1.00
1309;DHT22;647;48.840;9.314;2022-11-12T06:38:27;6.80;1.00
1309;DHT22;647;48.840;9.314;2022-11-12T06:40:54;6.90;1.00
1309;DHT22;647;48.840;9.314;2022-11-12T06:43:21;6.90;1.00
1309;DHT22;647;48.840;9.314;2022-11-12T06:45:48;6.90;1.00
1309;DHT22;647;48.840;9.314;2022-11-12T06:48:16;7.00;1.00
1309;DHT22;647;48.840;9.314;2022-11-12T06:50:43;7.00;1.00
1309;DHT22;647;48.840;9.314;2022-11-12T06:53:10;6.90;1.00
1309;DHT22;647;48.840;9.314;2022-11-12T06:55:36;6.90;1.00
1309;DHT22;647;48.840;9.314;2022-11-12T06:58:03;7.00;1.00
1309;DHT22;647;48.840;9.314;2022-11-12T07:00:30;7.00;1.00
1309;DHT22;647;48.840;9.314;2022-11-12T07:02:57;7.10;1.00
1309;DHT22;647;48.840;9.314;2022-11-12T07:05:25;7.20;1.00
1309;DHT22;647;48.840;9.314;2022-11-12T07:07:53;7.20;1.00
1309;DHT22;647;48.840;9.314;2022-11-12T07:10:20;7.30;1.00
1309;DHT22;647;48.840;9.314;2022-11-12T07:12:47;7.30;1.00
1309;DHT22;647;48.840;9.314;2022-11-12T07:15:14;7.30;1.00
1309;DHT22;647;48.840;9.314;2022-11-12T07:17:44;7.30;1.00
1309;DHT22;647;48.840;9.314;2022-11-12T07:20:11;7.40;1.00
1309;DHT22;647;48.840;9.314;2022-11-12T07:22:39;7.60;1.00
1309;DHT22;647;48.840;9.314;2022-11-12T07:25:07;7.20;1.00
1309;DHT22;647;48.840;9.314;2022-11-12T07:27:34;7.00;1.00
1309;DHT22;647;48.840;9.314;2022-11-12T07:30:01;7.00;1.00
1309;DHT22;647;48.840;9.314;2022-11-12T07:32:28;6.50;1.00
1309;DHT22;647;48.840;9.314;2022-11-12T07:34:55;6.50;1.00
1309;DHT22;647;48.840;9.314;2022-11-12T07:37:22;6.70;1.00
1309;DHT22;647;48.840;9.314;2022-11-12T07:39:50;6.70;1.00
1309;DHT22;647;48.840;9.314;2022-11-12T07:42:17;6.60;1.00
1309;DHT22;647;48.840;9.314;2022-11-12T07:44:43;6.40;1.00
1309;DHT22;647;48.840;9.314;2022-11-12T07:47:10;6.50;1.00
1309;DHT22;647;48.840;9.314;2022-11-12T07:49:37;6.10;1.00
1309;DHT22;647;48.840;9.314;2022-11-12T07:52:04;6.30;1.00
1309;DHT22;647;48.840;9.314;2022-11-12T07:54:31;6.40;1.00
1309;DHT22;647;48.840;9.314;2022-11-12T07:56:59;6.20;1.00
1309;DHT22;647;48.840;9.314;2022-11-12T07:59:25;5.90;1.00
1309;DHT22;647;48.840;9.314;2022-11-12T08:01:52;5.70;1.00
1309;DHT22;647;48.840;9.314;2022-11-12T08:04:19;5.70;1.00
1309;DHT22;647;48.840;9.314;2022-11-12T08:06:46;6.00;1.00
1309;DHT22;647;48.840;9.314;2022-11-12T08:09:13;6.30;1.00
1309;DHT22;647;48.840;9.314;2022-11-12T08:11:40;6.70;1.00
1309;DHT22;647;48.840;9.314;2022-11-12T08:14:08;6.80;1.00
1309;DHT22;647;48.840;9.314;2022-11-12T08:16:35;6.90;1.00
1309;DHT22;647;48.840;9.314;2022-11-12T08:19:02;7.10;1.00
1309;DHT22;647;48.840;9.314;2022-11-12T08:21:29;7.50;1.00
1309;DHT22;647;48.840;9.314;2022-11-12T08:23:56;7.90;1.00
1309;DHT22;647;48.840;9.314;2022-11-12T08:26:23;8.10;1.00
1309;DHT22;647;48.840;9.314;2022-11-12T08:28:51;8.10;1.00
1309;DHT22;647;48.840;9.314;2022-11-12T08:31:20;8.10;1.00
1309;DHT22;647;48.840;9.314;2022-11-12T08:33:47;8.30;1.00
1309;DHT22;647;48.840;9.314;2022-11-12T08:36:16;8.30;1.00
1309;DHT22;647;48.840;9.314;2022-11-12T08:38:43;8.60;1.00
1309;DHT22;647;48.840;9.314;2022-11-12T08:41:11;8.70;1.00
1309;DHT22;647;48.840;9.314;2022-11-12T08:43:39;8.50;1.00
1309;DHT22;647;48.840;9.314;2022-11-12T08:46:06;9.20;1.00
1309;DHT22;647;48.840;9.314;2022-11-12T08:48:35;9.30;1.00
1309;DHT22;647;48.840;9.314;2022-11-12T08:51:05;9.10;1.00
1309;DHT22;647;48.840;9.314;2022-11-12T08:53:32;9.20;1.00
1309;DHT22;647;48.840;9.314;2022-11-12T08:55:59;9.70;1.00
1309;DHT22;647;48.840;9.314;2022-11-12T08:58:26;10.30;1.00
1309;DHT22;647;48.840;9.314;2022-11-12T09:00:54;10.00;1.00
1309;DHT22;647;48.840;9.314;2022-11-12T09:03:23;9.70;1.00
1309;DHT22;647;48.840;9.314;2022-11-12T09:05:51;9.60;1.00
1309;DHT22;647;48.840;9.314;2022-11-12T09:08:19;9.50;1.00
1309;DHT22;647;48.840;9.314;2022-11-12T09:10:47;9.30;1.00
1309;DHT22;647;48.840;9.314;2022-11-12T09:13:15;9.20;1.00
1309;DHT22;647;48.840;9.314;2022-11-12T09:15:42;9.20;1.00
1309;DHT22;647;48.840;9.314;2022-11-12T09:18:11;9.40;1.00
1309;DHT22;647;48.840;9.314;2022-11-12T09:20:38;9.40;1.00
1309;DHT22;647;48.840;9.314;2022-11-12T09:23:08;9.50;1.00
1309;DHT22;647;48.840;9.314;2022-11-12T09:25:36;9.90;1.00
1309;DHT22;647;48.840;9.314;2022-11-12T09:28:07;10.10;1.00
1309;DHT22;647;48.840;9.314;2022-11-12T09:30:35;10.40;1.00
1309;DHT22;647;48.840;9.314;2022-11-12T09:33:02;10.80;1.00
1309;DHT22;647;48.840;9.314;2022-11-12T09:35:29;11.40;1.00
1309;DHT22;647;48.840;9.314;2022-11-12T09:37:56;12.20;1.00
1309;DHT22;647;48.840;9.314;2022-11-12T09:40:38;13.30;1.00
1309;DHT22;647;48.840;9.314;2022-11-12T09:43:16;14.00;1.00
1309;DHT22;647;48.840;9.314;2022-11-12T09:45:45;13.90;1.00
1309;DHT22;647;48.840;9.314;2022-11-12T09:48:17;13.70;1.00
1309;DHT22;647;48.840;9.314;2022-11-12T09:50:52;14.20;1.00
1309;DHT22;647;48.840;9.314;2022-11-12T09:53:29;14.60;1.00
1309;DHT22;647;48.840;9.314;2022-11-12T09:55:58;14.40;1.00
1309;DHT22;647;48.840;9.314;2022-11-12T09:58:26;14.40;1.00
1309;DHT22;647;48.840;9.314;2022-11-12T10:00:56;15.10;99.90
1309;DHT22;647;48.840;9.314;2022-11-12T10:03:33;15.50;99.90
1309;DHT22;647;48.840;9.314;2022-11-12T10:06:06;15.70;99.90
1309;DHT22;647;48.840;9.314;2022-11-12T10:08:40;16.30;99.90
1309;DHT22;647;48.840;9.314;2022-11-12T10:14:36;17.30;99.90
1309;DHT22;647;48.840;9.314;2022-11-12T10:17:11;18.00;99.90
1309;DHT22;647;48.840;9.314;2022-11-12T10:19:48;17.80;99.90
1309;DHT22;647;48.840;9.314;2022-11-12T10:22:32;17.90;99.90
1309;DHT22;647;48.840;9.314;2022-11-12T10:25:11;18.20;99.90
1309;DHT22;647;48.840;9.314;2022-11-12T10:27:41;18.30;99.90
1309;DHT22;647;48.840;9.314;2022-11-12T10:30:14;19.00;99.90
1309;DHT22;647;48.840;9.314;2022-11-12T10:32:42;20.90;99.90
1309;DHT22;647;48.840;9.314;2022-11-12T10:35:10;21.40;99.90
1309;DHT22;647;48.840;9.314;2022-11-12T10:37:45;21.70;99.90
1309;DHT22;647;48.840;9.314;2022-11-12T10:40:27;21.60;99.90
1309;DHT22;647;48.840;9.314;2022-11-12T10:43:00;20.60;99.90
1309;DHT22;647;48.840;9.314;2022-11-12T10:45:27;20.20;99.90
1309;DHT22;647;48.840;9.314;2022-11-12T10:47:54;19.10;99.90
1309;DHT22;647;48.840;9.314;2022-11-12T10:50:24;19.10;99.90
1309;DHT22;647;48.840;9.314;2022-11-12T10:52:55;19.30;99.90
1309;DHT22;647;48.840;9.314;2022-11-12T10:55:24;20.20;99.90
1309;DHT22;647;48.840;9.314;2022-11-12T10:58:16;21.20;99.90
1309;DHT22;647;48.840;9.314;2022-11-12T11:00:54;22.10;99.90
1309;DHT22;647;48.840;9.314;2022-11-12T11:03:23;22.70;99.90
1309;DHT22;647;48.840;9.314;2022-11-12T11:08:34;24.20;99.90
1309;DHT22;647;48.840;9.314;2022-11-12T11:11:18;23.10;99.90
1309;DHT22;647;48.840;9.314;2022-11-12T11:13:47;23.40;99.90
1309;DHT22;647;48.840;9.314;2022-11-12T11:16:15;24.10;99.90
1309;DHT22;647;48.840;9.314;2022-11-12T11:18:46;24.10;99.90
1309;DHT22;647;48.840;9.314;2022-11-12T12:12:33;23.60;99.90
1309;DHT22;647;48.840;9.314;2022-11-12T12:15:18;28.40;99.90
1309;DHT22;647;48.840;9.314;2022-11-12T12:17:56;28.80;99.90
1309;DHT22;647;48.840;9.314;2022-11-12T12:20:29;29.00;99.90
1309;DHT22;647;48.840;9.314;2022-11-12T12:23:03;28.20;99.90
1309;DHT22;647;48.840;9.314;2022-11-12T12:25:34;27.70;99.90
1309;DHT22;647;48.840;9.314;2022-11-12T12:28:09;28.40;99.90
1309;DHT22;647;48.840;9.314;2022-11-12T12:30:44;28.80;99.90
1309;DHT22;647;48.840;9.314;2022-11-12T12:33:21;29.30;99.90
1309;DHT22;647;48.840;9.314;2022-11-12T12:35:53;30.00;99.90
1309;DHT22;647;48.840;9.314;2022-11-12T12:38:27;30.50;99.90
1309;DHT22;647;48.840;9.314;2022-11-12T12:41:03;30.70;99.90
1309;DHT22;647;48.840;9.314;2022-11-12T12:43:35;30.20;99.90
1309;DHT22;647;48.840;9.314;2022-11-12T12:46:05;29.30;99.90
1309;DHT22;647;48.840;9.314;2022-11-12T12:48:35;28.90;99.90
1309;DHT22;647;48.840;9.314;2022-11-12T12:51:03;28.80;99.90
1309;DHT22;647;48.840;9.314;2022-11-12T12:53:32;28.90;99.90
1309;DHT22;647;48.840;9.314;2022-11-12T12:56:00;28.90;99.90
1309;DHT22;647;48.840;9.314;2022-11-12T12:58:30;28.80;99.90
1309;DHT22;647;48.840;9.314;2022-11-12T13:01:00;28.90;99.90
1309;DHT22;647;48.840;9.314;2022-11-12T13:03:52;29.10;99.90
1309;DHT22;647;48.840;9.314;2022-11-12T13:06:27;29.10;99.90
1309;DHT22;647;48.840;9.314;2022-11-12T13:08:58;28.80;99.90
1309;DHT22;647;48.840;9.314;2022-11-12T13:11:45;28.70;99.90
1309;DHT22;647;48.840;9.314;2022-11-12T13:15:10;28.70;99.90
1309;DHT22;647;48.840;9.314;2022-11-12T13:17:48;28.60;99.90
1309;DHT22;647;48.840;9.314;2022-11-12T13:20:32;28.20;99.90
1309;DHT22;647;48.840;9.314;2022-11-12T13:22:59;28.40;99.90
1309;DHT22;647;48.840;9.314;2022-11-12T13:25:28;28.80;99.90
1309;DHT22;647;48.840;9.314;2022-11-12T13:28:06;28.80;99.90
1309;DHT22;647;48.840;9.314;2022-11-12T13:30:58;28.50;99.90
1309;DHT22;647;48.840;9.314;2022-11-12T13:33:31;28.20;99.90
1309;DHT22;647;48.840;9.314;2022-11-12T13:36:25;27.80;99.90
1309;DHT22;647;48.840;9.314;2022-11-12T13:38:55;27.30;99.90
1309;DHT22;647;48.840;9.314;2022-11-12T13:41:25;26.80;99.90
1309;DHT22;647;48.840;9.314;2022-11-12T13:44:14;26.40;99.90
1309;DHT22;647;48.840;9.314;2022-11-12T13:46:43;25.90;99.90
1309;DHT22;647;48.840;9.314;2022-11-12T13:49:12;25.50;99.90
1309;DHT22;647;48.840;9.314;2022-11-12T13:51:43;25.00;99.90
1309;DHT22;647;48.840;9.314;2022-11-12T13:54:32;24.60;99.90
1309;DHT22;647;48.840;9.314;2022-11-12T13:57:25;24.00;99.90
1309;DHT22;647;48.840;9.314;2022-11-12T14:00:08;23.40;99.90
1309;DHT22;647;48.840;9.314;2022-11-12T14:02:36;23.00;99.90
1309;DHT22;647;48.840;9.314;2022-11-12T14:05:12;22.80;99.90
1309;DHT22;647;48.840;9.314;2022-11-12T14:07:48;22.50;99.90
1309;DHT22;647;48.840;9.314;2022-11-12T14:10:24;22.20;99.90
1309;DHT22;647;48.840;9.314;2022-11-12T14:16:14;21.50;99.90
1309;DHT22;647;48.840;9.314;2022-11-12T14:18:56;21.20;99.90
1309;DHT22;647;48.840;9.314;2022-11-12T14:21:25;20.90;99.90
1309;DHT22;647;48.840;9.314;2022-11-12T14:23:53;20.80;99.90
1309;DHT22;647;48.840;9.314;2022-11-12T14:26:33;20.70;99.90
1309;DHT22;647;48.840;9.314;2022-11-12T14:29:00;20.50;99.90
1309;DHT22;647;48.840;9.314;2022-11-12T14:31:27;20.40;99.90
1309;DHT22;647;48.840;9.314;2022-11-12T14:33:54;20.20;99.90
1309;DHT22;647;48.840;9.314;2022-11-12T14:36:21;20.00;99.90
1309;DHT22;647;48.840;9.314;2022-11-12T14:41:20;19.50;99.90
1309;DHT22;647;48.840;9.314;2022-11-12T14:43:49;19.20;99.90
1309;DHT22;647;48.840;9.314;2022-11-12T14:46:22;19.00;99.90
1309;DHT22;647;48.840;9.314;2022-11-12T14:48:52;18.70;99.90
1309;DHT22;647;48.840;9.314;2022-11-12T14:51:21;18.50;99.90
1309;DHT22;647;48.840;9.314;2022-11-12T14:53:54;18.40;99.90
1309;DHT22;647;48.840;9.314;2022-11-12T14:56:26;18.10;99.90
1309;DHT22;647;48.840;9.314;2022-11-12T14:58:55;17.90;99.90
1309;DHT22;647;48.840;9.314;2022-11-12T15:01:24;17.70;99.90
1309;DHT22;647;48.840;9.314;2022-11-12T15:04:03;17.40;99.90
1309;DHT22;647;48.840;9.314;2022-11-12T15:06:31;17.20;99.90
1309;DHT22;647;48.840;9.314;2022-11-12T15:08:59;16.90;99.90
1309;DHT22;647;48.840;9.314;2022-11-12T15:11:28;16.50;99.90
1309;DHT22;647;48.840;9.314;2022-11-12T15:13:57;16.20;99.90
1309;DHT22;647;48.840;9.314;2022-11-12T15:16:30;15.80;99.90
1309;DHT22;647;48.840;9.314;2022-11-12T15:19:03;15.90;99.90
1309;DHT22;647;48.840;9.314;2022-11-12T15:21:30;15.70;99.90
1309;DHT22;647;48.840;9.314;2022-11-12T15:24:05;15.50;99.90
1309;DHT22;647;48.840;9.314;2022-11-12T15:26:35;15.30;99.90
1309;DHT22;647;48.840;9.314;2022-11-12T15:29:12;15.20;99.90
1309;DHT22;647;48.840;9.314;2022-11-12T15:31:45;15.00;99.90
1309;DHT22;647;48.840;9.314;2022-11-12T15:34:24;15.00;99.90
1309;DHT22;647;48.840;9.314;2022-11-12T15:36:52;14.80;99.90
1309;DHT22;647;48.840;9.314;2022-11-12T15:39:19;14.70;99.90
1309;DHT22;647;48.840;9.314;2022-11-12T15:41:57;14.60;99.90
1309;DHT22;647;48.840;9.314;2022-11-12T15:44:25;14.50;99.90
1309;DHT22;647;48.840;9.314;2022-11-12T15:46:55;14.40;99.90
1309;DHT22;647;48.840;9.314;2022-11-12T15:49:23;14.20;99.90
1309;DHT22;647;48.840;9.314;2022-11-12T15:51:50;14.10;99.90
1309;DHT22;647;48.840;9.314;2022-11-12T15:54:17;13.90;99.90
1309;DHT22;647;48.840;9.314;2022-11-12T15:56:44;13.70;1.00
1309;DHT22;647;48.840;9.314;2022-11-12T15:59:14;13.60;1.00
1309;DHT22;647;48.840;9.314;2022-11-12T16:01:42;13.50;1.00
1309;DHT22;647;48.840;9.314;2022-11-12T16:04:10;13.30;1.00
1309;DHT22;647;48.840;9.314;2022-11-12T16:06:37;13.20;1.00
1309;DHT22;647;48.840;9.314;2022-11-12T16:09:04;12.90;1.00
1309;DHT22;647;48.840;9.314;2022-11-12T16:11:31;12.90;1.00
1309;DHT22;647;48.840;9.314;2022-11-12T16:14:01;12.90;1.00
1309;DHT22;647;48.840;9.314;2022-11-12T16:16:30;12.90;1.00
1309;DHT22;647;48.840;9.314;2022-11-12T16:18:57;12.80;1.00
1309;DHT22;647;48.840;9.314;2022-11-12T16:21:23;12.70;1.00
1309;DHT22;647;48.840;9.314;2022-11-12T16:23:50;12.50;1.00
1309;DHT22;647;48.840;9.314;2022-11-12T16:26:26;12.40;1.00
1309;DHT22;647;48.840;9.314;2022-11-12T16:28:53;12.30;1.00
1309;DHT22;647;48.840;9.314;2022-11-12T16:31:21;12.20;1.00
1309;DHT22;647;48.840;9.314;2022-11-12T16:33:50;12.10;1.00
1309;DHT22;647;48.840;9.314;2022-11-12T16:36:16;12.00;1.00
1309;DHT22;647;48.840;9.314;2022-11-12T16:38:44;11.90;1.00
1309;DHT22;647;48.840;9.314;2022-11-12T16:41:12;11.80;1.00
1309;DHT22;647;48.840;9.314;2022-11-12T16:43:39;11.80;1.00
1309;DHT22;647;48.840;9.314;2022-11-12T16:46:19;11.60;1.00
1309;DHT22;647;48.840;9.314;2022-11-12T16:48:47;11.50;1.00
1309;DHT22;647;48.840;9.314;2022-11-12T16:51:17;11.50;1.00
1309;DHT22;647;48.840;9.314;2022-11-12T16:53:45;11.40;1.00
1309;DHT22;647;48.840;9.314;2022-11-12T16:56:13;11.30;1.00
1309;DHT22;647;48.840;9.314;2022-11-12T16:58:41;11.10;1.00
1309;DHT22;647;48.840;9.314;2022-11-12T17:01:12;11.10;1.00
1309;DHT22;647;48.840;9.314;2022-11-12T17:03:40;11.10;1.00
1309;DHT22;647;48.840;9.314;2022-11-12T17:06:06;11.10;1.00
1309;DHT22;647;48.840;9.314;2022-11-12T17:08:35;11.00;1.00
1309;DHT22;647;48.840;9.314;2022-11-12T17:11:06;11.00;1.00
1309;DHT22;647;48.840;9.314;2022-11-12T17:13:34;10.80;1.00
1309;DHT22;647;48.840;9.314;2022-11-12T17:16:01;10.70;1.00
1309;DHT22;647;48.840;9.314;2022-11-12T17:18:28;10.80;1.00
1309;DHT22;647;48.840;9.314;2022-11-12T17:20:55;10.70;1.00
1309;DHT22;647;48.840;9.314;2022-11-12T17:23:22;10.60;1.00
1309;DHT22;647;48.840;9.314;2022-11-12T17:25:59;10.60;1.00
1309;DHT22;647;48.840;9.314;2022-11-12T17:28:27;10.50;1.00
1309;DHT22;647;48.840;9.314;2022-11-12T17:31:02;10.50;1.00
1309;DHT22;647;48.840;9.314;2022-11-12T17:33:29;10.50;1.00
1309;DHT22;647;48.840;9.314;2022-11-12T17:36:00;10.40;1.00
1309;DHT22;647;48.840;9.314;2022-11-12T17:38:27;10.30;1.00
1309;DHT22;647;48.840;9.314;2022-11-12T17:40:54;10.30;1.00
1309;DHT22;647;48.840;9.314;2022-11-12T17:43:23;10.30;1.00
1309;DHT22;647;48.840;9.314;2022-11-12T17:45:50;10.00;1.00
1309;DHT22;647;48.840;9.314;2022-11-12T17:48:17;9.90;1.00
1309;DHT22;647;48.840;9.314;2022-11-12T17:50:44;9.90;1.00
1309;DHT22;647;48.840;9.314;2022-11-12T17:53:11;9.90;1.00
1309;DHT22;647;48.840;9.314;2022-11-12T17:55:38;10.00;1.00
1309;DHT22;647;48.840;9.314;2022-11-12T17:58:05;10.00;1.00
1309;DHT22;647;48.840;9.314;2022-11-12T18:00:34;9.90;1.00
1309;DHT22;647;48.840;9.314;2022-11-12T18:03:01;10.00;1.00
1309;DHT22;647;48.840;9.314;2022-11-12T18:05:27;9.90;1.00
1309;DHT22;647;48.840;9.314;2022-11-12T18:07:55;9.90;1.00
1309;DHT22;647;48.840;9.314;2022-11-12T18:10:21;9.70;1.00
1309;DHT22;647;48.840;9.314;2022-11-12T18:12:50;9.70;1.00
1309;DHT22;647;48.840;9.314;2022-11-12T18:15:17;9.60;1.00
1309;DHT22;647;48.840;9.314;2022-11-12T18:17:46;9.60;1.00
1309;DHT22;647;48.840;9.314;2022-11-12T18:20:12;9.50;1.00
1309;DHT22;647;48.840;9.314;2022-11-12T18:22:39;9.40;1.00
1309;DHT22;647;48.840;9.314;2022-11-12T18:25:07;9.30;1.00
1309;DHT22;647;48.840;9.314;2022-11-12T18:27:34;9.30;1.00
1309;DHT22;647;48.840;9.314;2022-11-12T18:30:00;9.30;1.00
1309;DHT22;647;48.840;9.314;2022-11-12T18:32:27;9.30;1.00